Seihou Maru — JM6496 — position and weather

sailwx.info

Track history (hours):
 
Tides and Currents Weather Stations Pressure Air Temp Water Temp Dewpoint Dewpoint Depression Visibility Wind Speed Wind Dir Waves Ship Positions

Seihou Maru

Last reported at 2017-Dec-18 05:00 UTC. Time now 2017-Dec-18 05:22 UTC.
Position N 35°31' E 140°02'.

Length 71 m; draft 4.4 m.

Type: Tanker. MMSI: 431400523.

Date/timePositionNaut miles runAvg speedWind from/ knotsBaromVisibWave heightAir tempDewpointWater temp
2017-Dec-18 05:00N 35°31' E 140°02'4 7.2
2017-Dec-18 04:30N 35°34' E 140°00'612.0
2017-Dec-18 03:59N 35°40' E 139°57'1 1.0
2017-Dec-18 03:14N 35°40' E 139°57'0 0.0
2017-Dec-18 02:49N 35°40' E 139°57'0 0.0
2017-Dec-18 02:22N 35°40' E 139°57'0 0.0
2017-Dec-18 01:11N 35°40' E 139°57'0 0.4
2017-Dec-18 00:53N 35°40' E 139°57'2 6.3
2017-Dec-18 00:29N 35°38' E 139°59'510.7
2017-Dec-18 00:00N 35°33' E 139°56'4 7.4
2017-Dec-17 23:27N 35°29' E 139°55'0 0.0
2017-Dec-17 22:57N 35°29' E 139°55'0 0.0
2017-Dec-17 22:30N 35°29' E 139°55'0 0.1
2017-Dec-17 22:00N 35°29' E 139°55'0 0.0
2017-Dec-17 21:30N 35°29' E 139°55'0 0.0
2017-Dec-17 20:57N 35°29' E 139°55'0 0.0
2017-Dec-17 20:27N 35°29' E 139°55'0 0.0
2017-Dec-17 20:00N 35°29' E 139°55'0 0.0
2017-Dec-17 19:18N 35°29' E 139°55'0 0.0
2017-Dec-17 18:57N 35°29' E 139°55'0 0.0
2017-Dec-17 18:27N 35°29' E 139°55'0 0.0
2017-Dec-17 17:54N 35°29' E 139°55'0 0.0
2017-Dec-17 17:18N 35°29' E 139°55'0 0.0
2017-Dec-17 16:57N 35°29' E 139°55'0 0.0
2017-Dec-17 16:27N 35°29' E 139°55'0 0.3
2017-Dec-17 16:00N 35°29' E 139°55'510.4
2017-Dec-17 15:30N 35°27' E 139°49'612.2
2017-Dec-17 15:00N 35°22' E 139°45'611.7
2017-Dec-17 14:30N 35°16' E 139°46'612.0
2017-Dec-17 14:00N 35°10' E 139°47'612.5
2017-Dec-17 13:30N 35°04' E 139°46'612.0
2017-Dec-17 13:00N 34°58' E 139°43'612.0
2017-Dec-17 12:30N 34°53' E 139°47'1012.1
2017-Dec-17 11:39N 34°54' E 139°59'312.9
2017-Dec-17 11:27N 34°55' E 140°02'612.4
2017-Dec-17 10:58N 34°58' E 140°08'  
2017-Dec-15 06:52N 41°38' E 141°35'20 0.9
2017-Dec-14 09:02N 41°54' E 141°19'312.9
2017-Dec-14 08:49N 41°52' E 141°17'412.9
2017-Dec-14 08:30N 41°48' E 141°15'713.4
2017-Dec-14 07:59N 41°43' E 141°08'714.2
2017-Dec-14 07:30N 41°39' E 141°01'714.3
2017-Dec-14 07:00N 41°35' E 140°53'713.4
2017-Dec-14 06:31N 41°29' E 140°49'612.3
2017-Dec-14 06:00N 41°23' E 140°46'612.0
2017-Dec-14 05:30N 41°18' E 140°43'612.6
2017-Dec-14 05:00N 41°11' E 140°43'712.7
2017-Dec-14 04:29N 41°05' E 140°44'612.7
2017-Dec-14 04:00N 40°59' E 140°45'611.5
2017-Dec-14 03:28N 40°53' E 140°49'2 3.5
2017-Dec-14 03:00N 40°52' E 140°50'0 0.0
2017-Dec-14 02:29N 40°52' E 140°50'0 0.0
2017-Dec-14 01:55N 40°52' E 140°50'0 0.0
2017-Dec-14 01:29N 40°52' E 140°50'0 0.0
2017-Dec-14 00:59N 40°52' E 140°50'0 0.1
2017-Dec-14 00:26N 40°52' E 140°49'0 0.1
2017-Dec-13 23:57N 40°52' E 140°50'0 0.0
2017-Dec-13 23:29N 40°52' E 140°50'0 0.3
2017-Dec-13 22:54N 40°52' E 140°50'2 6.4
2017-Dec-13 22:31N 40°54' E 140°48'2 0.2
2017-Dec-13 12:15N 40°55' E 140°46'311.5
2017-Dec-13 12:00N 40°58' E 140°45'713.3
2017-Dec-13 11:29N 41°05' E 140°44'713.4
2017-Dec-13 11:00N 41°11' E 140°44'713.2
2017-Dec-13 10:30N 41°18' E 140°43'612.8
2017-Dec-13 10:01N 41°24' E 140°46'612.6
2017-Dec-13 09:30N 41°30' E 140°49'611.5
2017-Dec-13 09:01N 41°35' E 140°53'510.5
2017-Dec-13 08:31N 41°39' E 140°58'510.4
2017-Dec-13 08:00N 41°42' E 141°04'611.9
2017-Dec-13 07:29N 41°45' E 141°10'611.7
2017-Dec-13 07:00N 41°50' E 141°15'23 0.8
2017-Dec-12 03:04N 41°31' E 141°33'111.6
2017-Dec-12 02:57N 41°30' E 141°33'11 0.3
2017-Dec-10 09:21N 41°40' E 141°34'7 0.2
2017-Dec-08 22:18N 41°34' E 141°36'  
Track history (hours):
 
Tides and Currents Weather Stations Pressure Air Temp Water Temp Dewpoint Dewpoint Depression Visibility Wind Speed Wind Dir Waves Ship Positions

Seihou Maru

Last reported at 2017-Dec-18 05:00 UTC. Time now 2017-Dec-18 05:22 UTC.
Position N 35°31' E 140°02'.

Length 71 m; draft 4.4 m.

Type: Tanker. MMSI: 431400523.

Date/timePositionNaut miles runAvg speedWind from/ knotsBaromVisibWave heightAir tempDewpointWater temp
2017-Dec-18 05:00N 35°31' E 140°02'4 7.2
2017-Dec-18 04:30N 35°34' E 140°00'612.0
2017-Dec-18 03:59N 35°40' E 139°57'1 1.0
2017-Dec-18 03:14N 35°40' E 139°57'0 0.0
2017-Dec-18 02:49N 35°40' E 139°57'0 0.0
2017-Dec-18 02:22N 35°40' E 139°57'0 0.0
2017-Dec-18 01:11N 35°40' E 139°57'0 0.4
2017-Dec-18 00:53N 35°40' E 139°57'2 6.3
2017-Dec-18 00:29N 35°38' E 139°59'510.7
2017-Dec-18 00:00N 35°33' E 139°56'4 7.4
2017-Dec-17 23:27N 35°29' E 139°55'0 0.0
2017-Dec-17 22:57N 35°29' E 139°55'0 0.0
2017-Dec-17 22:30N 35°29' E 139°55'0 0.1
2017-Dec-17 22:00N 35°29' E 139°55'0 0.0
2017-Dec-17 21:30N 35°29' E 139°55'0 0.0
2017-Dec-17 20:57N 35°29' E 139°55'0 0.0
2017-Dec-17 20:27N 35°29' E 139°55'0 0.0
2017-Dec-17 20:00N 35°29' E 139°55'0 0.0
2017-Dec-17 19:18N 35°29' E 139°55'0 0.0
2017-Dec-17 18:57N 35°29' E 139°55'0 0.0
2017-Dec-17 18:27N 35°29' E 139°55'0 0.0
2017-Dec-17 17:54N 35°29' E 139°55'0 0.0
2017-Dec-17 17:18N 35°29' E 139°55'0 0.0
2017-Dec-17 16:57N 35°29' E 139°55'0 0.0
2017-Dec-17 16:27N 35°29' E 139°55'0 0.3
2017-Dec-17 16:00N 35°29' E 139°55'510.4
2017-Dec-17 15:30N 35°27' E 139°49'612.2
2017-Dec-17 15:00N 35°22' E 139°45'611.7
2017-Dec-17 14:30N 35°16' E 139°46'612.0
2017-Dec-17 14:00N 35°10' E 139°47'612.5
2017-Dec-17 13:30N 35°04' E 139°46'612.0
2017-Dec-17 13:00N 34°58' E 139°43'612.0
2017-Dec-17 12:30N 34°53' E 139°47'1012.1
2017-Dec-17 11:39N 34°54' E 139°59'312.9
2017-Dec-17 11:27N 34°55' E 140°02'612.4
2017-Dec-17 10:58N 34°58' E 140°08'  
2017-Dec-15 06:52N 41°38' E 141°35'20 0.9
2017-Dec-14 09:02N 41°54' E 141°19'312.9
2017-Dec-14 08:49N 41°52' E 141°17'412.9
2017-Dec-14 08:30N 41°48' E 141°15'713.4
2017-Dec-14 07:59N 41°43' E 141°08'714.2
2017-Dec-14 07:30N 41°39' E 141°01'714.3
2017-Dec-14 07:00N 41°35' E 140°53'713.4
2017-Dec-14 06:31N 41°29' E 140°49'612.3
2017-Dec-14 06:00N 41°23' E 140°46'612.0
2017-Dec-14 05:30N 41°18' E 140°43'612.6
2017-Dec-14 05:00N 41°11' E 140°43'712.7
2017-Dec-14 04:29N 41°05' E 140°44'612.7
2017-Dec-14 04:00N 40°59' E 140°45'611.5
2017-Dec-14 03:28N 40°53' E 140°49'2 3.5
2017-Dec-14 03:00N 40°52' E 140°50'0 0.0
2017-Dec-14 02:29N 40°52' E 140°50'0 0.0
2017-Dec-14 01:55N 40°52' E 140°50'0 0.0
2017-Dec-14 01:29N 40°52' E 140°50'0 0.0
2017-Dec-14 00:59N 40°52' E 140°50'0 0.1
2017-Dec-14 00:26N 40°52' E 140°49'0 0.1
2017-Dec-13 23:57N 40°52' E 140°50'0 0.0
2017-Dec-13 23:29N 40°52' E 140°50'0 0.3
2017-Dec-13 22:54N 40°52' E 140°50'2 6.4
2017-Dec-13 22:31N 40°54' E 140°48'2 0.2
2017-Dec-13 12:15N 40°55' E 140°46'311.5
2017-Dec-13 12:00N 40°58' E 140°45'713.3
2017-Dec-13 11:29N 41°05' E 140°44'713.4
2017-Dec-13 11:00N 41°11' E 140°44'713.2
2017-Dec-13 10:30N 41°18' E 140°43'612.8
2017-Dec-13 10:01N 41°24' E 140°46'612.6
2017-Dec-13 09:30N 41°30' E 140°49'611.5
2017-Dec-13 09:01N 41°35' E 140°53'510.5
2017-Dec-13 08:31N 41°39' E 140°58'510.4
2017-Dec-13 08:00N 41°42' E 141°04'611.9
2017-Dec-13 07:29N 41°45' E 141°10'611.7
2017-Dec-13 07:00N 41°50' E 141°15'23 0.8
2017-Dec-12 03:04N 41°31' E 141°33'111.6
2017-Dec-12 02:57N 41°30' E 141°33'11 0.3
2017-Dec-10 09:21N 41°40' E 141°34'7 0.2
2017-Dec-08 22:18N 41°34' E 141°36'  

Dump ship's entire track history